Terminal Aerodrome Forecast
Issued by NWS Tuscon, AZ

Home | Current Version | Previous Version | Text Only | Print | Product List | Glossary On
Versions: 1 2 3 4 5 6 7 8 9 10 11 12
447
FTUS45 KTWC 302327
TAFTUS
TAF
KTUS 302327Z 3100/3124 27011G18KT P6SM SKC
     FM310300 29007KT P6SM SKC
     FM311000 15006KT P6SM SKC
     FM312000 32009G16KT P6SM SCT150=

USA.gov is the U.S. government's official web portal to all federal, state and local government web resources and services.